sensor_id;sensor_type;location;lat;lon;timestamp;pressure;altitude;pressure_sealevel;temperature
62930;BMP280;49036;42.782;23.108;2023-03-12T00:00:32;93109.03;;;-1.19
62930;BMP280;49036;42.782;23.108;2023-03-12T00:02:57;93110.41;;;-1.25
62930;BMP280;49036;42.782;23.108;2023-03-12T00:05:23;93120.53;;;-1.26
62930;BMP280;49036;42.782;23.108;2023-03-12T00:07:50;93126.84;;;-1.31
62930;BMP280;49036;42.782;23.108;2023-03-12T00:10:15;93127.13;;;-1.35
62930;BMP280;49036;42.782;23.108;2023-03-12T00:12:41;93118.59;;;-1.25
62930;BMP280;49036;42.782;23.108;2023-03-12T00:15:07;93128.09;;;-1.19
62930;BMP280;49036;42.782;23.108;2023-03-12T00:17:33;93132.63;;;-1.01
62930;BMP280;49036;42.782;23.108;2023-03-12T00:19:58;93125.31;;;-0.92
62930;BMP280;49036;42.782;23.108;2023-03-12T00:22:24;93125.50;;;-0.90
62930;BMP280;49036;42.782;23.108;2023-03-12T00:24:54;93132.22;;;-0.91
62930;BMP280;49036;42.782;23.108;2023-03-12T00:27:20;93132.41;;;-0.89
62930;BMP280;49036;42.782;23.108;2023-03-12T00:29:46;93137.66;;;-0.91
62930;BMP280;49036;42.782;23.108;2023-03-12T00:32:11;93138.69;;;-0.94
62930;BMP280;49036;42.782;23.108;2023-03-12T00:34:37;93148.00;;;-0.90
62930;BMP280;49036;42.782;23.108;2023-03-12T00:37:02;93143.75;;;-0.98
62930;BMP280;49036;42.782;23.108;2023-03-12T00:39:28;93143.22;;;-0.97
62930;BMP280;49036;42.782;23.108;2023-03-12T00:41:53;93150.84;;;-0.95
62930;BMP280;49036;42.782;23.108;2023-03-12T00:44:19;93148.13;;;-0.95
62930;BMP280;49036;42.782;23.108;2023-03-12T00:46:45;93151.38;;;-0.97
62930;BMP280;49036;42.782;23.108;2023-03-12T00:49:10;93145.81;;;-0.91
62930;BMP280;49036;42.782;23.108;2023-03-12T00:51:36;93138.38;;;-0.91
62930;BMP280;49036;42.782;23.108;2023-03-12T00:54:02;93137.84;;;-0.89
62930;BMP280;49036;42.782;23.108;2023-03-12T00:56:28;93138.38;;;-0.91
62930;BMP280;49036;42.782;23.108;2023-03-12T00:58:53;93149.38;;;-0.96
62930;BMP280;49036;42.782;23.108;2023-03-12T01:01:19;93138.63;;;-1.02
62930;BMP280;49036;42.782;23.108;2023-03-12T01:03:45;93132.63;;;-1.01
62930;BMP280;49036;42.782;23.108;2023-03-12T01:06:10;93130.13;;;-0.98
62930;BMP280;49036;42.782;23.108;2023-03-12T01:08:36;93144.16;;;-1.08
62930;BMP280;49036;42.782;23.108;2023-03-12T01:11:02;93152.78;;;-1.17
62930;BMP280;49036;42.782;23.108;2023-03-12T01:13:28;93155.69;;;-1.15
62930;BMP280;49036;42.782;23.108;2023-03-12T01:15:54;93154.44;;;-1.14
62930;BMP280;49036;42.782;23.108;2023-03-12T01:18:19;93162.59;;;-1.14
62930;BMP280;49036;42.782;23.108;2023-03-12T01:20:45;93150.06;;;-1.17
62930;BMP280;49036;42.782;23.108;2023-03-12T01:23:11;93152.38;;;-1.21
62930;BMP280;49036;42.782;23.108;2023-03-12T01:25:37;93154.34;;;-1.21
62930;BMP280;49036;42.782;23.108;2023-03-12T01:28:03;93157.16;;;-1.14
62930;BMP280;49036;42.782;23.108;2023-03-12T01:30:29;93156.44;;;-1.14
62930;BMP280;49036;42.782;23.108;2023-03-12T01:32:55;93154.97;;;-1.15
62930;BMP280;49036;42.782;23.108;2023-03-12T01:35:20;93150.59;;;-1.18
62930;BMP280;49036;42.782;23.108;2023-03-12T01:37:46;93159.69;;;-1.16
62930;BMP280;49036;42.782;23.108;2023-03-12T01:40:18;93149.72;;;-1.13
62930;BMP280;49036;42.782;23.108;2023-03-12T01:42:53;93150.88;;;-1.09
62930;BMP280;49036;42.782;23.108;2023-03-12T01:48:22;93149.63;;;-1.21
62930;BMP280;49036;42.782;23.108;2023-03-12T01:50:48;93156.16;;;-1.24
62930;BMP280;49036;42.782;23.108;2023-03-12T01:53:13;93153.81;;;-1.33
62930;BMP280;49036;42.782;23.108;2023-03-12T01:55:39;93143.78;;;-1.38
62930;BMP280;49036;42.782;23.108;2023-03-12T01:58:05;93156.13;;;-1.37
62930;BMP280;49036;42.782;23.108;2023-03-12T02:00:31;93146.38;;;-1.33
62930;BMP280;49036;42.782;23.108;2023-03-12T02:02:59;93147.16;;;-1.32
62930;BMP280;49036;42.782;23.108;2023-03-12T02:05:35;93141.28;;;-1.36
62930;BMP280;49036;42.782;23.108;2023-03-12T02:08:04;93145.66;;;-1.33
62930;BMP280;49036;42.782;23.108;2023-03-12T02:10:30;93152.25;;;-1.42
62930;BMP280;49036;42.782;23.108;2023-03-12T02:12:55;93148.06;;;-1.43
62930;BMP280;49036;42.782;23.108;2023-03-12T02:15:21;93152.16;;;-1.49
62930;BMP280;49036;42.782;23.108;2023-03-12T02:17:47;93162.63;;;-1.54
62930;BMP280;49036;42.782;23.108;2023-03-12T02:20:19;93157.06;;;-1.48
62930;BMP280;49036;42.782;23.108;2023-03-12T02:22:51;93171.94;;;-1.49
62930;BMP280;49036;42.782;23.108;2023-03-12T02:25:34;93171.09;;;-1.44
62930;BMP280;49036;42.782;23.108;2023-03-12T02:28:04;93170.25;;;-1.52
62930;BMP280;49036;42.782;23.108;2023-03-12T02:30:31;93176.13;;;-1.61
62930;BMP280;49036;42.782;23.108;2023-03-12T02:32:59;93174.44;;;-1.64
62930;BMP280;49036;42.782;23.108;2023-03-12T02:35:25;93181.66;;;-1.67
62930;BMP280;49036;42.782;23.108;2023-03-12T02:37:53;93181.66;;;-1.67
62930;BMP280;49036;42.782;23.108;2023-03-12T02:40:36;93179.66;;;-1.79
62930;BMP280;49036;42.782;23.108;2023-03-12T02:43:08;93190.00;;;-1.78
62930;BMP280;49036;42.782;23.108;2023-03-12T02:45:35;93205.69;;;-1.84
62930;BMP280;49036;42.782;23.108;2023-03-12T02:48:03;93202.84;;;-1.92
62930;BMP280;49036;42.782;23.108;2023-03-12T02:50:31;93197.00;;;-1.96
62930;BMP280;49036;42.782;23.108;2023-03-12T02:52:56;93202.53;;;-2.01
62930;BMP280;49036;42.782;23.108;2023-03-12T02:55:22;93208.91;;;-1.99
62930;BMP280;49036;42.782;23.108;2023-03-12T02:57:47;93202.00;;;-2.00
62930;BMP280;49036;42.782;23.108;2023-03-12T03:00:14;93210.97;;;-2.05
62930;BMP280;49036;42.782;23.108;2023-03-12T03:02:40;93203.34;;;-2.06
62930;BMP280;49036;42.782;23.108;2023-03-12T03:05:07;93209.50;;;-2.06
62930;BMP280;49036;42.782;23.108;2023-03-12T03:07:32;93212.53;;;-2.10
62930;BMP280;49036;42.782;23.108;2023-03-12T03:09:58;93218.56;;;-2.17
62930;BMP280;49036;42.782;23.108;2023-03-12T03:12:29;93215.22;;;-2.10
62930;BMP280;49036;42.782;23.108;2023-03-12T03:14:55;93219.34;;;-2.03
62930;BMP280;49036;42.782;23.108;2023-03-12T03:17:20;93216.50;;;-2.11
62930;BMP280;49036;42.782;23.108;2023-03-12T03:19:49;93219.09;;;-2.18
62930;BMP280;49036;42.782;23.108;2023-03-12T03:22:15;93220.75;;;-2.28
62930;BMP280;49036;42.782;23.108;2023-03-12T03:24:40;93225.22;;;-2.31
62930;BMP280;49036;42.782;23.108;2023-03-12T03:27:06;93228.50;;;-2.19
62930;BMP280;49036;42.782;23.108;2023-03-12T03:29:32;93216.56;;;-2.16
62930;BMP280;49036;42.782;23.108;2023-03-12T03:31:58;93221.72;;;-2.13
62930;BMP280;49036;42.782;23.108;2023-03-12T03:34:24;93223.19;;;-2.12
62930;BMP280;49036;42.782;23.108;2023-03-12T03:36:49;93225.69;;;-2.14
62930;BMP280;49036;42.782;23.108;2023-03-12T03:39:15;93222.13;;;-2.22
62930;BMP280;49036;42.782;23.108;2023-03-12T03:41:40;93231.94;;;-2.19
62930;BMP280;49036;42.782;23.108;2023-03-12T03:44:06;93226.72;;;-2.17
62930;BMP280;49036;42.782;23.108;2023-03-12T03:46:32;93229.75;;;-2.20
62930;BMP280;49036;42.782;23.108;2023-03-12T03:49:00;93230.41;;;-2.14
62930;BMP280;49036;42.782;23.108;2023-03-12T03:51:25;93237.91;;;-2.20
62930;BMP280;49036;42.782;23.108;2023-03-12T03:53:51;93238.09;;;-2.18
62930;BMP280;49036;42.782;23.108;2023-03-12T03:56:16;93241.25;;;-2.14
62930;BMP280;49036;42.782;23.108;2023-03-12T03:58:42;93249.84;;;-2.10
62930;BMP280;49036;42.782;23.108;2023-03-12T04:01:08;93250.66;;;-2.15
62930;BMP280;49036;42.782;23.108;2023-03-12T04:03:34;93250.09;;;-2.27
62930;BMP280;49036;42.782;23.108;2023-03-12T04:06:01;93250.91;;;-2.32
62930;BMP280;49036;42.782;23.108;2023-03-12T04:08:27;93250.97;;;-2.38
62930;BMP280;49036;42.782;23.108;2023-03-12T04:10:53;93245.72;;;-2.36
62930;BMP280;49036;42.782;23.108;2023-03-12T04:13:20;93245.19;;;-2.28
62930;BMP280;49036;42.782;23.108;2023-03-12T04:15:49;93256.72;;;-2.22
62930;BMP280;49036;42.782;23.108;2023-03-12T04:18:15;93259.31;;;-2.17
62930;BMP280;49036;42.782;23.108;2023-03-12T04:20:41;93263.13;;;-2.06
62930;BMP280;49036;42.782;23.108;2023-03-12T04:23:07;93277.25;;;-2.08
62930;BMP280;49036;42.782;23.108;2023-03-12T04:25:32;93275.78;;;-2.09
62930;BMP280;49036;42.782;23.108;2023-03-12T04:27:58;93283.41;;;-2.08
62930;BMP280;49036;42.782;23.108;2023-03-12T04:30:23;93285.47;;;-2.14
62930;BMP280;49036;42.782;23.108;2023-03-12T04:32:49;93268.72;;;-2.18
62930;BMP280;49036;42.782;23.108;2023-03-12T04:35:14;93283.13;;;-2.23
62930;BMP280;49036;42.782;23.108;2023-03-12T04:37:40;93297.22;;;-2.24
62930;BMP280;49036;42.782;23.108;2023-03-12T04:40:06;93286.88;;;-2.26
62930;BMP280;49036;42.782;23.108;2023-03-12T04:42:34;93301.47;;;-2.29
62930;BMP280;49036;42.782;23.108;2023-03-12T04:45:00;93293.56;;;-2.27
62930;BMP280;49036;42.782;23.108;2023-03-12T04:47:26;93300.41;;;-2.20
62930;BMP280;49036;42.782;23.108;2023-03-12T04:49:51;93309.13;;;-2.27
62930;BMP280;49036;42.782;23.108;2023-03-12T04:52:17;93312.81;;;-2.25
62930;BMP280;49036;42.782;23.108;2023-03-12T04:54:43;93311.78;;;-2.22
62930;BMP280;49036;42.782;23.108;2023-03-12T04:57:08;93324.31;;;-2.19
62930;BMP280;49036;42.782;23.108;2023-03-12T04:59:34;93323.38;;;-2.21
62930;BMP280;49036;42.782;23.108;2023-03-12T05:02:00;93324.13;;;-2.21
62930;BMP280;49036;42.782;23.108;2023-03-12T05:04:25;93336.81;;;-2.29
62930;BMP280;49036;42.782;23.108;2023-03-12T05:06:51;93331.28;;;-2.23
62930;BMP280;49036;42.782;23.108;2023-03-12T05:09:16;93342.41;;;-2.21
62930;BMP280;49036;42.782;23.108;2023-03-12T05:11:42;93346.06;;;-2.19
62930;BMP280;49036;42.782;23.108;2023-03-12T05:14:10;93344.38;;;-2.03
62930;BMP280;49036;42.782;23.108;2023-03-12T05:16:35;93349.81;;;-2.03
62930;BMP280;49036;42.782;23.108;2023-03-12T05:19:01;93359.50;;;-2.08
62930;BMP280;49036;42.782;23.108;2023-03-12T05:21:27;93355.97;;;-2.02
62930;BMP280;49036;42.782;23.108;2023-03-12T05:23:52;93367.06;;;-2.00
62930;BMP280;49036;42.782;23.108;2023-03-12T05:26:23;93368.75;;;-1.97
62930;BMP280;49036;42.782;23.108;2023-03-12T05:28:49;93371.56;;;-2.03
62930;BMP280;49036;42.782;23.108;2023-03-12T05:31:18;93380.72;;;-2.06
62930;BMP280;49036;42.782;23.108;2023-03-12T05:33:45;93370.81;;;-2.03
62930;BMP280;49036;42.782;23.108;2023-03-12T05:36:12;93374.56;;;-1.88
62930;BMP280;49036;42.782;23.108;2023-03-12T05:38:38;93377.97;;;-1.68
62930;BMP280;49036;42.782;23.108;2023-03-12T05:41:05;93375.03;;;-1.51
62930;BMP280;49036;42.782;23.108;2023-03-12T05:43:30;93373.88;;;-1.43
62930;BMP280;49036;42.782;23.108;2023-03-12T05:46:01;93383.72;;;-1.40
62930;BMP280;49036;42.782;23.108;2023-03-12T05:48:28;93388.81;;;-1.31
62930;BMP280;49036;42.782;23.108;2023-03-12T05:50:54;93384.31;;;-1.28
62930;BMP280;49036;42.782;23.108;2023-03-12T05:53:19;93388.50;;;-1.27
62930;BMP280;49036;42.782;23.108;2023-03-12T05:55:45;93401.06;;;-1.24
62930;BMP280;49036;42.782;23.108;2023-03-12T05:58:10;93391.13;;;-1.21
62930;BMP280;49036;42.782;23.108;2023-03-12T06:00:36;93393.22;;;-1.14
62930;BMP280;49036;42.782;23.108;2023-03-12T06:03:05;93399.63;;;-1.12
62930;BMP280;49036;42.782;23.108;2023-03-12T06:05:32;93386.88;;;-1.04
62930;BMP280;49036;42.782;23.108;2023-03-12T06:07:58;93413.38;;;-1.04
62930;BMP280;49036;42.782;23.108;2023-03-12T06:10:24;93415.19;;;-0.93
62930;BMP280;49036;42.782;23.108;2023-03-12T06:12:49;93414.66;;;-0.92
62930;BMP280;49036;42.782;23.108;2023-03-12T06:15:15;93425.66;;;-0.84
62930;BMP280;49036;42.782;23.108;2023-03-12T06:17:40;93427.97;;;-0.75
62930;BMP280;49036;42.782;23.108;2023-03-12T06:20:07;93432.91;;;-0.60
62930;BMP280;49036;42.782;23.108;2023-03-12T06:22:32;93438.25;;;-0.41
62930;BMP280;49036;42.782;23.108;2023-03-12T06:24:58;93447.66;;;-0.42
62930;BMP280;49036;42.782;23.108;2023-03-12T06:27:23;93452.09;;;-0.39
62930;BMP280;49036;42.782;23.108;2023-03-12T06:29:49;93465.72;;;-0.39
62930;BMP280;49036;42.782;23.108;2023-03-12T06:32:15;93459.44;;;-0.21
62930;BMP280;49036;42.782;23.108;2023-03-12T06:34:43;93455.88;;;-0.16
62930;BMP280;49036;42.782;23.108;2023-03-12T06:37:09;93455.25;;;-0.22
62930;BMP280;49036;42.782;23.108;2023-03-12T06:39:36;93463.91;;;-0.24
62930;BMP280;49036;42.782;23.108;2023-03-12T06:42:01;93461.00;;;-0.26
62930;BMP280;49036;42.782;23.108;2023-03-12T06:44:27;93457.09;;;-0.17
62930;BMP280;49036;42.782;23.108;2023-03-12T06:46:52;93466.03;;;-0.03
62930;BMP280;49036;42.782;23.108;2023-03-12T06:49:18;93462.75;;;0.12
62930;BMP280;49036;42.782;23.108;2023-03-12T06:51:43;93473.88;;;0.00
62930;BMP280;49036;42.782;23.108;2023-03-12T06:54:09;93470.22;;;0.11
62930;BMP280;49036;42.782;23.108;2023-03-12T06:56:35;93480.16;;;0.22
62930;BMP280;49036;42.782;23.108;2023-03-12T06:59:00;93468.84;;;0.18
62930;BMP280;49036;42.782;23.108;2023-03-12T07:01:26;93487.72;;;0.29
62930;BMP280;49036;42.782;23.108;2023-03-12T07:03:51;93465.78;;;0.21
62930;BMP280;49036;42.782;23.108;2023-03-12T07:06:19;93483.66;;;0.43
62930;BMP280;49036;42.782;23.108;2023-03-12T07:08:45;93486.66;;;0.53
62930;BMP280;49036;42.782;23.108;2023-03-12T07:11:11;93483.56;;;0.49
62930;BMP280;49036;42.782;23.108;2023-03-12T07:13:37;93500.03;;;0.43
62930;BMP280;49036;42.782;23.108;2023-03-12T07:16:04;93493.19;;;0.50
62930;BMP280;49036;42.782;23.108;2023-03-12T07:18:30;93495.28;;;0.57
62930;BMP280;49036;42.782;23.108;2023-03-12T07:20:55;93499.66;;;0.60
62930;BMP280;49036;42.782;23.108;2023-03-12T07:23:21;93496.22;;;0.59
62930;BMP280;49036;42.782;23.108;2023-03-12T07:25:47;93495.56;;;0.67
62930;BMP280;49036;42.782;23.108;2023-03-12T07:28:13;93482.91;;;0.56
62930;BMP280;49036;42.782;23.108;2023-03-12T07:30:40;93483.09;;;0.58
62930;BMP280;49036;42.782;23.108;2023-03-12T07:33:08;93490.09;;;0.67
62930;BMP280;49036;42.782;23.108;2023-03-12T07:35:35;93497.84;;;0.76
62930;BMP280;49036;42.782;23.108;2023-03-12T07:38:02;93496.13;;;0.86
62930;BMP280;49036;42.782;23.108;2023-03-12T07:40:28;93504.19;;;0.91
62930;BMP280;49036;42.782;23.108;2023-03-12T07:42:54;93509.50;;;0.76
62930;BMP280;49036;42.782;23.108;2023-03-12T07:45:20;93514.72;;;0.87
62930;BMP280;49036;42.782;23.108;2023-03-12T07:47:45;93532.91;;;0.85
62930;BMP280;49036;42.782;23.108;2023-03-12T07:50:11;93510.97;;;0.77
62930;BMP280;49036;42.782;23.108;2023-03-12T07:52:37;93525.56;;;0.80
62930;BMP280;49036;42.782;23.108;2023-03-12T07:55:03;93518.38;;;0.90
62930;BMP280;49036;42.782;23.108;2023-03-12T07:57:28;93529.31;;;1.11
62930;BMP280;49036;42.782;23.108;2023-03-12T07:59:54;93520.59;;;1.12
62930;BMP280;49036;42.782;23.108;2023-03-12T08:02:20;93517.41;;;1.01
62930;BMP280;49036;42.782;23.108;2023-03-12T08:04:45;93528.59;;;1.10
62930;BMP280;49036;42.782;23.108;2023-03-12T08:07:11;93528.34;;;1.22
62930;BMP280;49036;42.782;23.108;2023-03-12T08:09:37;93534.13;;;1.18
62930;BMP280;49036;42.782;23.108;2023-03-12T08:12:03;93535.06;;;1.00
62930;BMP280;49036;42.782;23.108;2023-03-12T08:14:29;93524.19;;;1.07
62930;BMP280;49036;42.782;23.108;2023-03-12T08:16:56;93534.72;;;1.03
62930;BMP280;49036;42.782;23.108;2023-03-12T08:19:21;93530.16;;;1.06
62930;BMP280;49036;42.782;23.108;2023-03-12T08:21:47;93531.44;;;1.05
62930;BMP280;49036;42.782;23.108;2023-03-12T08:24:12;93536.41;;;1.27
62930;BMP280;49036;42.782;23.108;2023-03-12T08:26:38;93542.97;;;1.11
62930;BMP280;49036;42.782;23.108;2023-03-12T08:29:03;93536.72;;;1.24
62930;BMP280;49036;42.782;23.108;2023-03-12T08:31:29;93542.41;;;1.26
62930;BMP280;49036;42.782;23.108;2023-03-12T08:33:54;93536.53;;;1.22
62930;BMP280;49036;42.782;23.108;2023-03-12T08:36:20;93529.50;;;1.34
62930;BMP280;49036;42.782;23.108;2023-03-12T08:38:45;93565.13;;;1.41
62930;BMP280;49036;42.782;23.108;2023-03-12T08:41:11;93553.50;;;1.48
62930;BMP280;49036;42.782;23.108;2023-03-12T08:43:37;93553.78;;;1.58
62930;BMP280;49036;42.782;23.108;2023-03-12T08:46:02;93546.91;;;1.44
62930;BMP280;49036;42.782;23.108;2023-03-12T08:48:29;93554.19;;;1.62
62930;BMP280;49036;42.782;23.108;2023-03-12T08:50:57;93564.72;;;1.58
62930;BMP280;49036;42.782;23.108;2023-03-12T08:53:24;93574.16;;;1.78
62930;BMP280;49036;42.782;23.108;2023-03-12T08:55:54;93563.47;;;1.88
62930;BMP280;49036;42.782;23.108;2023-03-12T08:58:20;93553.16;;;2.01
62930;BMP280;49036;42.782;23.108;2023-03-12T09:00:46;93556.97;;;1.98
62930;BMP280;49036;42.782;23.108;2023-03-12T09:03:11;93553.50;;;1.98
62930;BMP280;49036;42.782;23.108;2023-03-12T09:05:39;93563.41;;;2.09
62930;BMP280;49036;42.782;23.108;2023-03-12T09:08:06;93549.44;;;2.27
62930;BMP280;49036;42.782;23.108;2023-03-12T09:10:31;93555.34;;;2.39
62930;BMP280;49036;42.782;23.108;2023-03-12T09:12:57;93545.72;;;2.46
62930;BMP280;49036;42.782;23.108;2023-03-12T09:15:23;93550.47;;;2.53
62930;BMP280;49036;42.782;23.108;2023-03-12T09:17:48;93545.66;;;2.74
62930;BMP280;49036;42.782;23.108;2023-03-12T09:20:14;93566.72;;;2.51
62930;BMP280;49036;42.782;23.108;2023-03-12T09:22:41;93555.41;;;2.47
62930;BMP280;49036;42.782;23.108;2023-03-12T09:25:08;93537.59;;;2.69
62930;BMP280;49036;42.782;23.108;2023-03-12T09:27:42;93539.41;;;2.66
62930;BMP280;49036;42.782;23.108;2023-03-12T09:30:11;93545.31;;;3.01
62930;BMP280;49036;42.782;23.108;2023-03-12T09:32:37;93542.78;;;2.95
62930;BMP280;49036;42.782;23.108;2023-03-12T09:35:04;93548.28;;;3.10
62930;BMP280;49036;42.782;23.108;2023-03-12T09:37:29;93547.38;;;3.15
62930;BMP280;49036;42.782;23.108;2023-03-12T09:39:56;93550.28;;;3.10
62930;BMP280;49036;42.782;23.108;2023-03-12T09:42:43;93538.97;;;3.36
62930;BMP280;49036;42.782;23.108;2023-03-12T09:45:34;93553.41;;;3.37
62930;BMP280;49036;42.782;23.108;2023-03-12T09:48:03;93555.41;;;3.44
62930;BMP280;49036;42.782;23.108;2023-03-12T09:50:37;93552.13;;;3.61
62930;BMP280;49036;42.782;23.108;2023-03-12T09:53:15;93568.06;;;3.55
62930;BMP280;49036;42.782;23.108;2023-03-12T09:55:44;93560.00;;;3.49
62930;BMP280;49036;42.782;23.108;2023-03-12T10:00:54;93561.09;;;3.76
62930;BMP280;49036;42.782;23.108;2023-03-12T10:03:31;93563.63;;;3.82
62930;BMP280;49036;42.782;23.108;2023-03-12T10:11:30;93548.78;;;4.00
62930;BMP280;49036;42.782;23.108;2023-03-12T10:22:18;93563.78;;;4.62
62930;BMP280;49036;42.782;23.108;2023-03-12T10:25:27;93552.50;;;5.16
62930;BMP280;49036;42.782;23.108;2023-03-12T10:27:58;93563.63;;;5.26
62930;BMP280;49036;42.782;23.108;2023-03-12T10:30:28;93569.91;;;5.18
62930;BMP280;49036;42.782;23.108;2023-03-12T10:32:57;93579.41;;;5.50
62930;BMP280;49036;42.782;23.108;2023-03-12T10:35:27;93554.97;;;5.29
62930;BMP280;49036;42.782;23.108;2023-03-12T10:38:00;93554.91;;;5.12
62930;BMP280;49036;42.782;23.108;2023-03-12T10:40:29;93552.03;;;5.02
62930;BMP280;49036;42.782;23.108;2023-03-12T10:42:55;93559.22;;;5.47
62930;BMP280;49036;42.782;23.108;2023-03-12T10:47:54;93557.47;;;5.60
62930;BMP280;49036;42.782;23.108;2023-03-12T10:50:28;93546.97;;;6.00
62930;BMP280;49036;42.782;23.108;2023-03-12T10:55:37;93535.72;;;6.23
62930;BMP280;49036;42.782;23.108;2023-03-12T10:58:03;93547.81;;;6.10
62930;BMP280;49036;42.782;23.108;2023-03-12T11:00:31;93548.16;;;6.15
62930;BMP280;49036;42.782;23.108;2023-03-12T11:03:02;93533.41;;;6.02
62930;BMP280;49036;42.782;23.108;2023-03-12T11:05:44;93540.28;;;5.94
62930;BMP280;49036;42.782;23.108;2023-03-12T11:08:33;93537.03;;;6.05
62930;BMP280;49036;42.782;23.108;2023-03-12T11:11:00;93537.94;;;5.90
62930;BMP280;49036;42.782;23.108;2023-03-12T11:13:37;93530.28;;;7.14
62930;BMP280;49036;42.782;23.108;2023-03-12T11:21:22;93530.53;;;6.71
62930;BMP280;49036;42.782;23.108;2023-03-12T11:26:24;93526.16;;;6.42
62930;BMP280;49036;42.782;23.108;2023-03-12T11:29:01;93526.72;;;7.21
62930;BMP280;49036;42.782;23.108;2023-03-12T11:31:40;93534.78;;;7.09
62930;BMP280;49036;42.782;23.108;2023-03-12T11:34:20;93534.22;;;5.95
62930;BMP280;49036;42.782;23.108;2023-03-12T11:42:48;93529.25;;;6.99
62930;BMP280;49036;42.782;23.108;2023-03-12T11:45:33;93525.66;;;7.16
62930;BMP280;49036;42.782;23.108;2023-03-12T11:56:23;93511.06;;;9.09
62930;BMP280;49036;42.782;23.108;2023-03-12T11:59:09;93513.19;;;8.29
62930;BMP280;49036;42.782;23.108;2023-03-12T12:19:00;93518.94;;;10.19
62930;BMP280;49036;42.782;23.108;2023-03-12T12:29:54;93519.69;;;7.66
62930;BMP280;49036;42.782;23.108;2023-03-12T12:32:49;93533.97;;;7.82
62930;BMP280;49036;42.782;23.108;2023-03-12T12:45:20;93550.72;;;6.30
62930;BMP280;49036;42.782;23.108;2023-03-12T12:47:52;93540.31;;;7.09
62930;BMP280;49036;42.782;23.108;2023-03-12T12:50:21;93518.69;;;8.99
62930;BMP280;49036;42.782;23.108;2023-03-12T12:52:59;93518.09;;;9.95
62930;BMP280;49036;42.782;23.108;2023-03-12T13:01:14;93524.31;;;9.63
62930;BMP280;49036;42.782;23.108;2023-03-12T13:03:40;93517.41;;;10.28
62930;BMP280;49036;42.782;23.108;2023-03-12T13:06:07;93511.31;;;10.08
62930;BMP280;49036;42.782;23.108;2023-03-12T13:11:23;93518.34;;;10.21
62930;BMP280;49036;42.782;23.108;2023-03-12T13:16:34;93523.59;;;10.50
62930;BMP280;49036;42.782;23.108;2023-03-12T13:22:24;93518.97;;;10.31
62930;BMP280;49036;42.782;23.108;2023-03-12T13:24:32;93522.28;;;9.85
62930;BMP280;49036;42.782;23.108;2023-03-12T13:27:09;93538.94;;;9.23
62930;BMP280;49036;42.782;23.108;2023-03-12T13:29:39;93523.09;;;9.23
62930;BMP280;49036;42.782;23.108;2023-03-12T13:32:09;93528.56;;;8.42
62930;BMP280;49036;42.782;23.108;2023-03-12T13:34:55;93526.38;;;8.50
62930;BMP280;49036;42.782;23.108;2023-03-12T13:38:01;93530.75;;;8.05
62930;BMP280;49036;42.782;23.108;2023-03-12T13:45:32;93539.38;;;6.97
62930;BMP280;49036;42.782;23.108;2023-03-12T13:48:01;93541.00;;;6.73
62930;BMP280;49036;42.782;23.108;2023-03-12T13:50:28;93546.91;;;6.69
62930;BMP280;49036;42.782;23.108;2023-03-12T13:53:05;93552.38;;;6.60
62930;BMP280;49036;42.782;23.108;2023-03-12T13:55:34;93568.66;;;6.21
62930;BMP280;49036;42.782;23.108;2023-03-12T13:58:07;93556.81;;;6.28
62930;BMP280;49036;42.782;23.108;2023-03-12T14:00:44;93559.09;;;6.22
62930;BMP280;49036;42.782;23.108;2023-03-12T14:03:26;93562.22;;;6.36
62930;BMP280;49036;42.782;23.108;2023-03-12T14:05:59;93569.44;;;6.31
62930;BMP280;49036;42.782;23.108;2023-03-12T14:14:27;93541.41;;;10.35
62930;BMP280;49036;42.782;23.108;2023-03-12T14:16:56;93546.50;;;10.38
62930;BMP280;49036;42.782;23.108;2023-03-12T14:20:02;93558.28;;;10.27
62930;BMP280;49036;42.782;23.108;2023-03-12T14:22:32;93562.78;;;10.32
62930;BMP280;49036;42.782;23.108;2023-03-12T14:27:46;93560.28;;;10.93
62930;BMP280;49036;42.782;23.108;2023-03-12T14:30:22;93561.03;;;11.28
62930;BMP280;49036;42.782;23.108;2023-03-12T14:32:51;93570.16;;;10.96
62930;BMP280;49036;42.782;23.108;2023-03-12T14:35:22;93570.16;;;10.84
62930;BMP280;49036;42.782;23.108;2023-03-12T14:37:58;93563.88;;;11.54
62930;BMP280;49036;42.782;23.108;2023-03-12T14:40:44;93567.28;;;11.17
62930;BMP280;49036;42.782;23.108;2023-03-12T14:43:25;93572.97;;;11.54
62930;BMP280;49036;42.782;23.108;2023-03-12T14:45:58;93579.25;;;11.20
62930;BMP280;49036;42.782;23.108;2023-03-12T14:48:35;93573.16;;;11.82
62930;BMP280;49036;42.782;23.108;2023-03-12T14:51:02;93564.97;;;12.46
62930;BMP280;49036;42.782;23.108;2023-03-12T14:53:33;93576.88;;;12.35
62930;BMP280;49036;42.782;23.108;2023-03-12T14:56:06;93581.13;;;11.87
62930;BMP280;49036;42.782;23.108;2023-03-12T14:58:34;93587.94;;;11.61
62930;BMP280;49036;42.782;23.108;2023-03-12T15:01:04;93587.56;;;11.20
62930;BMP280;49036;42.782;23.108;2023-03-12T15:03:38;93596.47;;;10.95
62930;BMP280;49036;42.782;23.108;2023-03-12T15:06:13;93596.25;;;10.91
62930;BMP280;49036;42.782;23.108;2023-03-12T15:08:42;93601.72;;;10.34
62930;BMP280;49036;42.782;23.108;2023-03-12T15:11:09;93608.31;;;10.84
62930;BMP280;49036;42.782;23.108;2023-03-12T15:13:37;93607.75;;;11.32
62930;BMP280;49036;42.782;23.108;2023-03-12T15:16:04;93597.84;;;11.41
62930;BMP280;49036;42.782;23.108;2023-03-12T15:18:31;93604.00;;;11.27
62930;BMP280;49036;42.782;23.108;2023-03-12T15:20:58;93606.59;;;10.79
62930;BMP280;49036;42.782;23.108;2023-03-12T15:23:29;93604.28;;;10.42
62930;BMP280;49036;42.782;23.108;2023-03-12T15:26:31;93612.97;;;9.94
62930;BMP280;49036;42.782;23.108;2023-03-12T15:29:24;93620.63;;;9.74
62930;BMP280;49036;42.782;23.108;2023-03-12T15:31:54;93619.88;;;9.83
62930;BMP280;49036;42.782;23.108;2023-03-12T15:34:37;93626.94;;;9.74
62930;BMP280;49036;42.782;23.108;2023-03-12T15:37:23;93630.91;;;10.14
62930;BMP280;49036;42.782;23.108;2023-03-12T15:39:53;93635.06;;;10.25
62930;BMP280;49036;42.782;23.108;2023-03-12T15:42:22;93637.69;;;10.44
62930;BMP280;49036;42.782;23.108;2023-03-12T15:44:51;93642.41;;;10.20
62930;BMP280;49036;42.782;23.108;2023-03-12T15:47:24;93648.00;;;10.11
62930;BMP280;49036;42.782;23.108;2023-03-12T15:49:55;93654.47;;;8.72
62930;BMP280;49036;42.782;23.108;2023-03-12T15:57:53;93667.66;;;7.33
62930;BMP280;49036;42.782;23.108;2023-03-12T16:05:22;93684.47;;;5.81
62930;BMP280;49036;42.782;23.108;2023-03-12T16:07:47;93688.88;;;5.19
62930;BMP280;49036;42.782;23.108;2023-03-12T16:10:15;93709.25;;;4.53